map of ISS home
ISS - Airport
Location
City:  Wiscasset, Maine, United States
ICAO:KIWI
IATA:ISS
FAA LID:IWI

Details
Type:Airport (Airfield)
Use:Public/Civil
Latitude:4357'41"N (43.961417)
Longitude:6942'45"W (-69.712555)
Datum:WGS 1984
Elevation:70 ft (21 m)
Variation:15.52W (WMM2015 magnetic declination)
0.08 annual change
Runways:1
Longest:3397 × 75 ft (1035 × 23 m), paved

Time
Time Zone:UTC-5 (DST-4)
Local Time:

Weather
METAR:KIWI 131653Z AUTO 00000KT 10SM CLR M04/M17 A3054 RMK AO2 SLP344 T10391167

Related Locations
Nearby:
Farthest:YAUG: 11718 mi / 18858 km
Augusta [Augusta Airport], WA, AU

Find:

   beyond  
but within

Other Information
Maps:
NOTAMs:
Links:
Sources:

  
  • flag of United States
  • flag of Maine
  

Sectional Chart

Flight Planning
at skyvector.com

Satellite Image

Google Maps Satellite view

 

Copyright © 2004-2018 Karl L. Swartz. All rights reserved.
The Great Circle Mapper name and logo are trademarks of the Great Circle Mapper.
All other trademarks mentioned herein belong to their respective owners.
Please see credits for attibutions and further copyright information.

  Follow gcmap on Facebook Follow gcmap on Twitter Follow gcmap on Google+ GCmap on LinkedIn

hCard Microformat

Geo Microformat